createdAt,value
2023-03-26T00:00:05.213Z,2.51
2023-03-26T00:00:35.978Z,2.36
2023-03-26T00:01:07.114Z,2.25
2023-03-26T00:01:38.016Z,2.40
2023-03-26T00:02:09.078Z,2.35
2023-03-26T00:02:40.173Z,2.20
2023-03-26T00:03:11.383Z,2.09
2023-03-26T00:03:42.913Z,2.09
2023-03-26T00:04:13.233Z,2.09
2023-03-26T00:04:44.480Z,1.98
2023-03-26T00:05:15.328Z,2.01
2023-03-26T00:05:46.232Z,2.01
2023-03-26T00:06:17.237Z,1.90
2023-03-26T00:06:48.640Z,1.90
2023-03-26T00:07:19.254Z,1.85
2023-03-26T00:07:50.195Z,1.74
2023-03-26T00:08:21.253Z,1.74
2023-03-26T00:08:53.516Z,1.74
2023-03-26T00:09:23.384Z,1.64
2023-03-26T00:09:53.909Z,1.79
2023-03-26T00:10:24.928Z,1.79
2023-03-26T00:10:56.086Z,1.79
2023-03-26T00:11:27.348Z,1.79
2023-03-26T00:11:58.297Z,1.79
2023-03-26T00:12:29.149Z,2.05
2023-03-26T00:13:00.021Z,2.05
2023-03-26T00:13:31.036Z,2.05
2023-03-26T00:14:02.991Z,2.16
2023-03-26T00:14:33.127Z,2.21
2023-03-26T00:15:03.974Z,2.21
2023-03-26T00:15:34.936Z,2.21
2023-03-26T00:16:05.992Z,2.21
2023-03-26T00:16:36.904Z,2.01
2023-03-26T00:17:08.301Z,2.01
2023-03-26T00:17:39.265Z,1.90
2023-03-26T00:18:10.373Z,1.67
2023-03-26T00:18:41.081Z,1.67
2023-03-26T00:19:13.161Z,1.56
2023-03-26T00:19:43.223Z,1.71
2023-03-26T00:20:14.125Z,1.71
2023-03-26T00:20:45.239Z,1.66
2023-03-26T00:21:16.028Z,1.66
2023-03-26T00:21:46.978Z,1.66
2023-03-26T00:22:17.756Z,1.66
2023-03-26T00:22:49.092Z,1.71
2023-03-26T00:23:20.192Z,1.86
2023-03-26T00:23:50.957Z,1.71
2023-03-26T00:24:23.296Z,1.82
2023-03-26T00:24:53.269Z,1.82
2023-03-26T00:25:24.498Z,1.82
2023-03-26T00:25:55.541Z,1.82
2023-03-26T00:26:26.048Z,1.82
2023-03-26T00:26:56.922Z,1.96
2023-03-26T00:27:28.179Z,1.96
2023-03-26T00:27:58.992Z,1.96
2023-03-26T00:28:29.756Z,1.96
2023-03-26T00:29:00.718Z,1.96
2023-03-26T00:29:33.067Z,1.96
2023-03-26T00:30:03.023Z,2.08
2023-03-26T00:30:34.130Z,2.19
2023-03-26T00:31:04.974Z,2.05
2023-03-26T00:31:35.845Z,2.05
2023-03-26T00:32:06.906Z,1.94
2023-03-26T00:32:37.936Z,1.96
2023-03-26T00:33:08.982Z,1.96
2023-03-26T00:33:40.133Z,1.96
2023-03-26T00:34:11.012Z,2.08
2023-03-26T00:34:42.988Z,2.08
2023-03-26T00:35:13.050Z,2.08
2023-03-26T00:35:44.000Z,2.08
2023-03-26T00:36:14.948Z,2.08
2023-03-26T00:36:46.372Z,2.08
2023-03-26T00:37:16.903Z,2.08
2023-03-26T00:37:48.044Z,1.96
2023-03-26T00:38:19.041Z,1.96
2023-03-26T00:38:50.150Z,1.96
2023-03-26T00:39:21.045Z,1.96
2023-03-26T00:39:52.886Z,1.96
2023-03-26T00:40:22.966Z,1.96
2023-03-26T00:40:53.966Z,1.96
2023-03-26T00:41:24.959Z,2.08
2023-03-26T00:41:56.147Z,2.19
2023-03-26T00:42:27.083Z,2.30
2023-03-26T00:42:58.067Z,2.30
2023-03-26T00:43:29.188Z,2.30
2023-03-26T00:44:00.186Z,2.30
2023-03-26T00:44:31.068Z,2.30
2023-03-26T00:45:03.403Z,2.30
2023-03-26T00:45:32.886Z,2.30
2023-03-26T00:46:04.251Z,2.30
2023-03-26T00:46:35.139Z,2.19
2023-03-26T00:47:06.800Z,2.19
2023-03-26T00:47:37.257Z,2.19
2023-03-26T00:48:08.665Z,2.08
2023-03-26T00:48:45.125Z,2.08
2023-03-26T00:49:10.236Z,2.08
2023-03-26T00:49:41.220Z,2.08
2023-03-26T00:50:12.890Z,2.08
2023-03-26T00:50:42.888Z,2.08
2023-03-26T00:51:13.911Z,2.08
2023-03-26T00:51:44.865Z,2.08
2023-03-26T00:52:15.860Z,2.08
2023-03-26T00:52:46.787Z,2.08
2023-03-26T00:53:17.879Z,2.08
2023-03-26T00:53:49.358Z,2.08
2023-03-26T00:54:20.493Z,2.08
2023-03-26T00:54:51.193Z,2.08
2023-03-26T00:55:22.913Z,2.08
2023-03-26T00:55:53.149Z,2.08
2023-03-26T00:56:24.353Z,2.08
2023-03-26T00:56:55.381Z,2.08
2023-03-26T00:57:34.954Z,1.96
2023-03-26T00:57:57.000Z,1.96
2023-03-26T00:58:27.967Z,1.96
2023-03-26T00:58:59.225Z,1.96
2023-03-26T00:59:30.086Z,1.96
2023-03-26T01:00:04.762Z,1.96
2023-03-26T01:00:32.769Z,1.86
2023-03-26T01:01:03.267Z,1.86
2023-03-26T01:01:34.355Z,1.86
2023-03-26T01:02:05.170Z,1.86
2023-03-26T01:02:36.159Z,1.86
2023-03-26T01:03:07.153Z,1.86
2023-03-26T01:03:38.029Z,1.96
2023-03-26T01:04:09.398Z,1.96
2023-03-26T01:04:40.235Z,1.96
2023-03-26T01:05:11.380Z,1.86
2023-03-26T01:05:43.175Z,1.86
2023-03-26T01:06:13.097Z,1.86
2023-03-26T01:06:44.039Z,1.86
2023-03-26T01:07:14.912Z,1.86
2023-03-26T01:07:46.159Z,1.86
2023-03-26T01:08:17.001Z,1.86
2023-03-26T01:08:48.324Z,1.86
2023-03-26T01:09:19.078Z,1.86
2023-03-26T01:09:49.871Z,1.86
2023-03-26T01:10:21.021Z,1.86
2023-03-26T01:10:52.833Z,1.86
2023-03-26T01:11:23.860Z,1.99
2023-03-26T01:11:54.468Z,1.99
2023-03-26T01:12:25.765Z,1.99
2023-03-26T01:12:55.852Z,1.99
2023-03-26T01:13:27.313Z,1.99
2023-03-26T01:13:58.102Z,1.99
2023-03-26T01:14:28.993Z,1.99
2023-03-26T01:15:00.279Z,1.99
2023-03-26T01:15:33.880Z,1.99
2023-03-26T01:16:02.903Z,1.99
2023-03-26T01:16:32.977Z,1.99
2023-03-26T01:17:04.068Z,1.99
2023-03-26T01:17:35.241Z,1.99
2023-03-26T01:18:07.403Z,1.99
2023-03-26T01:18:37.364Z,1.99
2023-03-26T01:19:08.053Z,1.99
2023-03-26T01:19:38.952Z,1.99
2023-03-26T01:20:10.117Z,2.10
2023-03-26T01:20:41.131Z,2.10
2023-03-26T01:21:13.247Z,2.10
2023-03-26T01:21:43.008Z,2.10
2023-03-26T01:22:13.839Z,2.10
2023-03-26T01:22:44.823Z,2.10
2023-03-26T01:23:15.939Z,2.10
2023-03-26T01:23:46.872Z,2.10
2023-03-26T01:24:18.060Z,2.10
2023-03-26T01:24:48.791Z,2.10
2023-03-26T01:25:19.897Z,2.10
2023-03-26T01:25:50.847Z,2.10
2023-03-26T01:26:23.169Z,2.10
2023-03-26T01:26:53.028Z,2.10
2023-03-26T01:27:24.101Z,2.10
2023-03-26T01:27:54.975Z,2.10
2023-03-26T01:28:26.092Z,2.10
2023-03-26T01:28:56.948Z,2.10
2023-03-26T01:29:28.067Z,2.10
2023-03-26T01:29:59.113Z,2.10
2023-03-26T01:30:32.501Z,2.10
2023-03-26T01:31:00.929Z,2.10
2023-03-26T01:31:33.239Z,2.10
2023-03-26T01:32:03.249Z,2.10
2023-03-26T01:32:34.353Z,2.10
2023-03-26T01:33:04.958Z,2.10
2023-03-26T01:33:36.260Z,1.99
2023-03-26T01:34:07.215Z,1.99
2023-03-26T01:34:38.119Z,1.99
2023-03-26T01:35:09.117Z,1.94
2023-03-26T01:35:39.987Z,1.94
2023-03-26T01:36:11.016Z,1.94
2023-03-26T01:36:43.036Z,1.94
2023-03-26T01:37:13.031Z,1.94
2023-03-26T01:37:44.115Z,1.94
2023-03-26T01:38:15.023Z,1.94
2023-03-26T01:38:45.932Z,1.94
2023-03-26T01:39:16.718Z,1.94
2023-03-26T01:39:47.993Z,1.94
2023-03-26T01:40:22.201Z,1.94
2023-03-26T01:40:48.372Z,1.94
2023-03-26T01:41:15.821Z,1.94
2023-03-26T01:41:47.868Z,1.94
2023-03-26T01:42:17.878Z,1.94
2023-03-26T01:42:48.960Z,1.94
2023-03-26T01:43:20.534Z,1.94
2023-03-26T01:43:57.940Z,1.94
2023-03-26T01:44:30.560Z,1.94
2023-03-26T01:44:58.780Z,1.99
2023-03-26T01:45:36.955Z,1.99
2023-03-26T01:46:01.128Z,1.99
2023-03-26T01:46:31.390Z,1.99
2023-03-26T01:47:03.237Z,2.10
2023-03-26T01:47:33.629Z,2.10
2023-03-26T01:48:04.329Z,2.25
2023-03-26T01:48:35.645Z,2.22
2023-03-26T01:49:06.572Z,2.22
2023-03-26T01:49:37.629Z,2.33
2023-03-26T01:50:08.288Z,2.33
2023-03-26T01:50:39.109Z,2.33
2023-03-26T01:51:10.197Z,2.44
2023-03-26T01:51:40.958Z,2.44
2023-03-26T01:52:13.054Z,2.44
2023-03-26T01:52:43.261Z,2.33
2023-03-26T01:53:14.030Z,2.33
2023-03-26T01:53:45.150Z,2.33
2023-03-26T01:54:15.948Z,2.33
2023-03-26T01:54:47.279Z,2.33
2023-03-26T01:55:17.994Z,2.33
2023-03-26T01:55:49.452Z,2.33
2023-03-26T01:56:20.459Z,2.33
2023-03-26T01:56:51.711Z,2.33
2023-03-26T01:57:23.239Z,2.33
2023-03-26T01:57:53.759Z,2.33
2023-03-26T01:58:24.136Z,2.33
2023-03-26T01:58:55.217Z,2.33
2023-03-26T01:59:26.214Z,2.33
2023-03-26T01:59:56.968Z,2.33
2023-03-26T02:00:32.188Z,2.33
2023-03-26T02:00:59.306Z,2.44
2023-03-26T02:01:29.946Z,2.49
2023-03-26T02:02:00.916Z,2.49
2023-03-26T02:02:32.924Z,2.35
2023-03-26T02:03:03.511Z,2.30
2023-03-26T02:03:34.164Z,2.30
2023-03-26T02:04:04.914Z,2.44
2023-03-26T02:04:36.131Z,2.44
2023-03-26T02:05:07.257Z,2.44
2023-03-26T02:05:38.226Z,2.44
2023-03-26T02:06:09.094Z,2.49
2023-03-26T02:06:40.081Z,2.35
2023-03-26T02:07:10.992Z,2.35
2023-03-26T02:07:43.210Z,2.49
2023-03-26T02:08:13.145Z,2.35
2023-03-26T02:08:44.186Z,2.49
2023-03-26T02:09:15.147Z,2.60
2023-03-26T02:09:46.001Z,2.60
2023-03-26T02:10:17.042Z,2.60
2023-03-26T02:10:47.945Z,2.58
2023-03-26T02:11:19.962Z,2.72
2023-03-26T02:11:49.993Z,2.83
2023-03-26T02:12:21.031Z,2.83
2023-03-26T02:12:53.155Z,2.94
2023-03-26T02:13:23.220Z,2.85
2023-03-26T02:13:53.978Z,2.96
2023-03-26T02:14:25.100Z,2.96
2023-03-26T02:14:56.146Z,3.08
2023-03-26T02:15:29.817Z,3.08
2023-03-26T02:15:58.283Z,3.04
2023-03-26T02:16:28.908Z,3.04
2023-03-26T02:17:00.181Z,3.15
2023-03-26T02:17:31.079Z,3.15
2023-03-26T02:18:03.155Z,3.15
2023-03-26T02:18:33.200Z,3.15
2023-03-26T02:19:03.967Z,3.15
2023-03-26T02:19:34.842Z,3.15
2023-03-26T02:20:06.084Z,3.15
2023-03-26T02:20:36.975Z,3.15
2023-03-26T02:21:08.262Z,3.15
2023-03-26T02:21:39.111Z,3.15
2023-03-26T02:22:10.099Z,3.00
2023-03-26T02:22:41.057Z,3.00
2023-03-26T02:23:13.401Z,3.00
2023-03-26T02:23:43.157Z,3.00
2023-03-26T02:24:13.912Z,2.79
2023-03-26T02:24:45.114Z,2.56
2023-03-26T02:25:16.082Z,2.51
2023-03-26T02:25:47.150Z,2.40
2023-03-26T02:26:17.967Z,2.40
2023-03-26T02:26:49.090Z,2.40
2023-03-26T02:27:20.103Z,2.55
2023-03-26T02:27:51.053Z,2.55
2023-03-26T02:28:23.169Z,2.55
2023-03-26T02:28:52.857Z,2.55
2023-03-26T02:29:24.070Z,2.55
2023-03-26T02:29:54.966Z,2.55
2023-03-26T02:30:28.561Z,2.44
2023-03-26T02:30:57.041Z,2.44
2023-03-26T02:31:27.982Z,2.44
2023-03-26T02:31:59.081Z,2.44
2023-03-26T02:32:30.282Z,2.44
2023-03-26T02:33:01.173Z,2.44
2023-03-26T02:33:32.993Z,2.44
2023-03-26T02:34:03.070Z,2.44
2023-03-26T02:34:34.049Z,2.69
2023-03-26T02:35:05.078Z,2.69
2023-03-26T02:38:11.019Z,2.55
2023-03-26T02:38:43.075Z,2.55
2023-03-26T02:39:13.055Z,2.55
2023-03-26T02:39:44.034Z,2.55
2023-03-26T02:40:15.049Z,2.55
2023-03-26T02:40:46.085Z,2.69
2023-03-26T02:41:17.023Z,2.58
2023-03-26T02:41:48.039Z,2.58
2023-03-26T02:42:19.019Z,2.58
2023-03-26T02:42:50.182Z,2.58
2023-03-26T02:43:21.073Z,2.58
2023-03-26T02:43:53.035Z,2.58
2023-03-26T02:44:23.129Z,2.58
2023-03-26T02:44:54.115Z,2.69
2023-03-26T02:45:28.509Z,2.69
2023-03-26T02:45:56.328Z,2.69
2023-03-26T02:46:27.158Z,2.69
2023-03-26T02:46:57.860Z,2.69
2023-03-26T02:47:29.104Z,2.69
2023-03-26T02:48:00.051Z,2.80
2023-03-26T02:48:30.974Z,2.85
2023-03-26T02:49:02.920Z,2.85
2023-03-26T02:49:33.177Z,2.96
2023-03-26T02:50:04.264Z,2.96
2023-03-26T02:50:35.035Z,2.96
2023-03-26T02:51:06.302Z,2.81
2023-03-26T02:51:37.176Z,2.96
2023-03-26T02:52:08.310Z,2.81
2023-03-26T02:52:39.071Z,2.81
2023-03-26T02:53:10.067Z,2.81
2023-03-26T02:53:41.093Z,2.81
2023-03-26T02:54:13.113Z,2.96
2023-03-26T02:54:43.255Z,2.96
2023-03-26T02:55:13.965Z,2.81
2023-03-26T02:55:44.851Z,2.81
2023-03-26T02:56:15.997Z,2.81
2023-03-26T02:56:47.191Z,2.81
2023-03-26T02:57:18.122Z,2.81
2023-03-26T02:57:49.220Z,2.81
2023-03-26T02:58:20.106Z,2.81
2023-03-26T02:58:51.005Z,2.81
2023-03-26T02:59:23.299Z,2.81
2023-03-26T02:59:53.158Z,2.70
2023-03-26T03:00:27.047Z,2.65
2023-03-26T03:00:55.070Z,2.65
2023-03-26T03:04:00.911Z,2.69
2023-03-26T03:04:33.018Z,2.69
2023-03-26T03:05:03.163Z,2.69
2023-03-26T03:05:33.933Z,2.69
2023-03-26T03:06:04.911Z,2.69
2023-03-26T03:06:36.062Z,2.69
2023-03-26T03:07:07.133Z,2.69
2023-03-26T03:07:38.255Z,2.58
2023-03-26T03:08:09.011Z,2.58
2023-03-26T03:08:39.972Z,2.58
2023-03-26T03:09:10.892Z,2.58
2023-03-26T03:09:43.161Z,2.58
2023-03-26T03:10:13.022Z,2.69
2023-03-26T03:10:43.900Z,2.69
2023-03-26T03:11:14.980Z,2.69
2023-03-26T03:11:46.265Z,2.69
2023-03-26T03:12:17.214Z,2.69
2023-03-26T03:12:48.136Z,2.69
2023-03-26T03:13:19.132Z,2.69
2023-03-26T03:13:50.180Z,2.83
2023-03-26T03:14:21.088Z,2.83
2023-03-26T03:14:53.296Z,2.94
2023-03-26T03:15:25.790Z,2.80
2023-03-26T03:15:54.352Z,2.80
2023-03-26T03:16:25.160Z,2.80
2023-03-26T03:16:55.981Z,2.80
2023-03-26T03:17:27.242Z,2.80
2023-03-26T03:17:58.018Z,2.80
2023-03-26T03:18:29.012Z,2.80
2023-03-26T03:18:59.906Z,2.80
2023-03-26T03:19:31.018Z,2.80
2023-03-26T03:20:03.159Z,2.94
2023-03-26T03:20:33.222Z,2.94
2023-03-26T03:21:04.139Z,2.94
2023-03-26T03:21:35.066Z,2.99
2023-03-26T03:22:06.155Z,2.99
2023-03-26T03:22:36.923Z,2.99
2023-03-26T03:23:08.103Z,2.99
2023-03-26T03:23:39.153Z,2.99
2023-03-26T03:24:10.054Z,2.99
2023-03-26T03:24:40.909Z,2.85
2023-03-26T03:25:13.229Z,2.85
2023-03-26T03:25:43.144Z,2.85
2023-03-26T03:26:14.042Z,2.85
2023-03-26T03:26:45.055Z,2.85
2023-03-26T03:27:16.027Z,2.80
2023-03-26T03:27:46.955Z,2.94
2023-03-26T03:28:18.058Z,2.94
2023-03-26T03:28:49.091Z,2.94
2023-03-26T03:29:20.174Z,2.99
2023-03-26T03:29:51.028Z,2.99
2023-03-26T03:30:25.896Z,3.10
2023-03-26T03:30:53.252Z,3.10
2023-03-26T03:31:23.810Z,2.96
2023-03-26T03:31:55.307Z,3.08
2023-03-26T03:32:26.065Z,3.08
2023-03-26T03:32:57.252Z,3.08
2023-03-26T03:33:28.079Z,3.08
2023-03-26T03:33:59.107Z,3.08
2023-03-26T03:34:30.039Z,3.08
2023-03-26T03:35:01.103Z,2.96
2023-03-26T03:35:32.970Z,2.96
2023-03-26T03:36:03.291Z,2.96
2023-03-26T03:36:34.118Z,2.96
2023-03-26T03:37:05.338Z,2.96
2023-03-26T03:37:35.896Z,2.96
2023-03-26T03:38:07.073Z,2.96
2023-03-26T03:38:38.002Z,2.96
2023-03-26T03:39:09.495Z,2.96
2023-03-26T03:39:40.113Z,2.96
2023-03-26T03:40:10.961Z,2.96
2023-03-26T03:40:43.026Z,2.96
2023-03-26T03:41:13.175Z,2.96
2023-03-26T03:41:43.987Z,2.96
2023-03-26T03:42:15.088Z,2.96
2023-03-26T03:42:46.039Z,2.96
2023-03-26T03:43:17.127Z,2.96
2023-03-26T03:43:48.173Z,2.96
2023-03-26T03:44:19.104Z,2.96
2023-03-26T03:44:49.918Z,2.96
2023-03-26T03:45:23.615Z,2.96
2023-03-26T03:45:53.220Z,2.96
2023-03-26T03:46:23.150Z,2.96
2023-03-26T03:46:54.184Z,2.96
2023-03-26T03:47:25.217Z,2.96
2023-03-26T03:47:56.165Z,2.96
2023-03-26T03:48:27.233Z,2.96
2023-03-26T03:48:58.222Z,2.96
2023-03-26T03:49:29.021Z,2.96
2023-03-26T03:49:59.945Z,3.10
2023-03-26T03:50:32.167Z,3.10
2023-03-26T03:51:03.175Z,3.10
2023-03-26T03:51:33.329Z,3.10
2023-03-26T03:52:04.201Z,3.22
2023-03-26T03:52:35.049Z,3.22
2023-03-26T03:53:05.856Z,3.22
2023-03-26T03:53:37.380Z,3.22
2023-03-26T03:54:08.394Z,3.22
2023-03-26T03:54:39.209Z,3.22
2023-03-26T03:55:10.197Z,3.22
2023-03-26T03:55:41.000Z,3.22
2023-03-26T03:56:13.258Z,3.22
2023-03-26T03:56:43.270Z,3.22
2023-03-26T03:57:14.047Z,3.22
2023-03-26T03:57:44.982Z,3.22
2023-03-26T03:58:16.126Z,3.22
2023-03-26T03:58:47.219Z,3.22
2023-03-26T04:00:22.872Z,3.22
2023-03-26T04:00:53.778Z,3.22
2023-03-26T04:01:23.254Z,3.22
2023-03-26T04:01:52.897Z,3.10
2023-03-26T04:02:23.951Z,3.10
2023-03-26T04:02:55.083Z,3.10
2023-03-26T04:03:33.339Z,3.10
2023-03-26T04:03:57.334Z,3.10
2023-03-26T04:04:28.096Z,3.10
2023-03-26T04:04:58.963Z,3.10
2023-03-26T04:05:29.900Z,3.10
2023-03-26T04:06:01.210Z,3.10
2023-03-26T04:06:33.129Z,3.10
2023-03-26T04:07:02.970Z,3.10
2023-03-26T04:07:34.206Z,3.10
2023-03-26T04:08:05.255Z,3.10
2023-03-26T04:08:36.000Z,3.10
2023-03-26T04:09:07.272Z,3.10
2023-03-26T04:09:37.969Z,3.10
2023-03-26T04:10:09.043Z,3.10
2023-03-26T04:10:40.088Z,3.10
2023-03-26T04:11:10.945Z,3.10
2023-03-26T04:11:43.225Z,3.10
2023-03-26T04:12:13.072Z,3.10
2023-03-26T04:12:44.022Z,3.10
2023-03-26T04:13:15.120Z,3.10
2023-03-26T04:13:46.307Z,3.10
2023-03-26T04:14:17.146Z,3.10
2023-03-26T04:14:48.142Z,3.10
2023-03-26T04:15:22.236Z,3.10
2023-03-26T04:15:50.228Z,3.10
2023-03-26T04:16:21.127Z,3.10
2023-03-26T04:16:53.293Z,3.10
2023-03-26T04:17:23.443Z,3.10
2023-03-26T04:17:54.236Z,3.10
2023-03-26T04:18:25.506Z,3.10
2023-03-26T04:18:56.331Z,3.10
2023-03-26T04:19:27.080Z,3.10
2023-03-26T04:19:58.271Z,3.10
2023-03-26T04:20:29.217Z,3.10
2023-03-26T04:21:00.264Z,3.10
2023-03-26T04:21:31.246Z,3.10
2023-03-26T04:22:03.247Z,3.10
2023-03-26T04:22:33.044Z,3.10
2023-03-26T04:23:04.354Z,3.10
2023-03-26T04:23:35.284Z,3.10
2023-03-26T04:24:06.124Z,3.10
2023-03-26T04:24:37.251Z,3.10
2023-03-26T04:25:12.395Z,3.10
2023-03-26T04:25:39.487Z,3.10
2023-03-26T04:26:10.608Z,3.22
2023-03-26T04:26:42.235Z,3.22
2023-03-26T04:27:13.640Z,3.22
2023-03-26T04:27:43.304Z,3.22
2023-03-26T04:28:14.560Z,3.22
2023-03-26T04:28:45.162Z,3.22
2023-03-26T04:29:16.408Z,3.22
2023-03-26T04:29:47.319Z,3.22
2023-03-26T04:30:21.533Z,3.33
2023-03-26T04:30:49.482Z,3.33
2023-03-26T04:31:20.774Z,3.33
2023-03-26T04:31:51.731Z,3.33
2023-03-26T04:32:23.059Z,3.33
2023-03-26T04:32:53.179Z,3.33
2023-03-26T04:33:24.039Z,3.33
2023-03-26T04:33:55.231Z,3.33
2023-03-26T04:34:26.367Z,3.33
2023-03-26T04:34:57.412Z,3.33
2023-03-26T04:35:28.579Z,3.33
2023-03-26T04:35:59.306Z,3.33
2023-03-26T04:36:30.076Z,3.33
2023-03-26T04:37:01.428Z,3.33
2023-03-26T04:37:33.196Z,3.33
2023-03-26T04:38:03.584Z,3.33
2023-03-26T04:38:34.148Z,3.33
2023-03-26T04:39:05.168Z,3.33
2023-03-26T04:39:36.362Z,3.33
2023-03-26T04:40:07.282Z,3.47
2023-03-26T04:40:38.336Z,3.47
2023-03-26T04:41:09.812Z,3.33
2023-03-26T04:41:40.365Z,3.47
2023-03-26T04:42:11.616Z,3.33
2023-03-26T04:42:43.363Z,3.33
2023-03-26T04:43:13.277Z,3.36
2023-03-26T04:43:44.219Z,3.22
2023-03-26T04:44:15.179Z,3.22
2023-03-26T04:44:46.021Z,3.22
2023-03-26T04:45:19.874Z,3.36
2023-03-26T04:45:48.136Z,3.24
2023-03-26T04:46:18.963Z,3.24
2023-03-26T04:46:50.120Z,3.24
2023-03-26T04:47:21.382Z,3.24
2023-03-26T04:47:53.217Z,3.24
2023-03-26T04:48:23.062Z,3.24
2023-03-26T04:48:54.104Z,3.24
2023-03-26T04:49:25.176Z,3.24
2023-03-26T04:49:55.974Z,3.24
2023-03-26T04:50:27.144Z,3.24
2023-03-26T04:50:58.130Z,3.24
2023-03-26T04:51:29.233Z,3.24
2023-03-26T04:52:00.449Z,3.24
2023-03-26T04:52:31.722Z,3.24
2023-03-26T04:53:03.525Z,3.24
2023-03-26T04:53:33.662Z,3.24
2023-03-26T04:54:04.332Z,3.24
2023-03-26T04:54:35.643Z,3.24
2023-03-26T04:55:06.526Z,3.24
2023-03-26T04:55:37.827Z,3.24
2023-03-26T04:56:08.483Z,3.24
2023-03-26T04:56:39.229Z,3.36
2023-03-26T04:57:10.098Z,3.36
2023-03-26T04:57:40.944Z,3.36
2023-03-26T04:58:13.075Z,3.36
2023-03-26T04:58:43.222Z,3.36
2023-03-26T04:59:14.183Z,3.36
2023-03-26T04:59:45.627Z,3.36
2023-03-26T05:00:19.144Z,3.36
2023-03-26T05:00:48.701Z,3.36
2023-03-26T05:01:18.611Z,3.36
2023-03-26T05:01:49.387Z,3.36
2023-03-26T05:02:19.994Z,3.36
2023-03-26T05:02:51.219Z,3.36
2023-03-26T05:03:23.234Z,3.36
2023-03-26T05:03:53.457Z,3.36
2023-03-26T05:04:24.414Z,3.36
2023-03-26T05:04:55.236Z,3.36
2023-03-26T05:05:26.028Z,3.36
2023-03-26T05:05:57.576Z,3.36
2023-03-26T05:06:28.166Z,3.36
2023-03-26T05:06:59.531Z,3.36
2023-03-26T05:07:30.277Z,3.36
2023-03-26T05:08:01.467Z,3.36
2023-03-26T05:08:33.696Z,3.36
2023-03-26T05:09:03.434Z,3.36
2023-03-26T05:09:34.436Z,3.36
2023-03-26T05:10:05.700Z,3.36
2023-03-26T05:10:36.287Z,3.36
2023-03-26T05:11:07.454Z,3.36
2023-03-26T05:11:38.517Z,3.36
2023-03-26T05:12:09.631Z,3.36
2023-03-26T05:12:40.519Z,3.36
2023-03-26T05:13:11.971Z,3.36
2023-03-26T05:13:43.765Z,3.36
2023-03-26T05:14:13.477Z,3.36
2023-03-26T05:14:44.161Z,3.36
2023-03-26T05:15:18.135Z,3.36
2023-03-26T05:15:46.431Z,3.36
2023-03-26T05:16:17.649Z,3.36
2023-03-26T05:16:48.571Z,3.36
2023-03-26T05:17:19.797Z,3.36
2023-03-26T05:17:50.205Z,3.36
2023-03-26T05:18:21.166Z,3.36
2023-03-26T05:18:53.465Z,3.36
2023-03-26T05:19:23.469Z,3.36
2023-03-26T05:19:54.629Z,3.36
2023-03-26T05:20:25.343Z,3.36
2023-03-26T05:20:56.532Z,3.36
2023-03-26T05:21:27.369Z,3.36
2023-03-26T05:21:58.275Z,3.36
2023-03-26T05:22:29.406Z,3.36
2023-03-26T05:23:00.086Z,3.36
2023-03-26T05:23:31.138Z,3.36
2023-03-26T05:24:03.360Z,3.36
2023-03-26T05:24:33.399Z,3.36
2023-03-26T05:25:04.239Z,3.36
2023-03-26T05:25:35.145Z,3.36
2023-03-26T05:26:06.209Z,3.36
2023-03-26T05:26:37.155Z,3.36
2023-03-26T05:27:08.080Z,3.36
2023-03-26T05:27:38.969Z,3.36
2023-03-26T05:28:10.324Z,3.36
2023-03-26T05:28:41.177Z,3.36
2023-03-26T05:29:13.595Z,3.36
2023-03-26T05:29:42.892Z,3.36
2023-03-26T05:30:17.069Z,3.36
2023-03-26T05:30:45.091Z,3.47
2023-03-26T05:31:17.184Z,3.47
2023-03-26T05:31:47.847Z,3.47
2023-03-26T05:32:19.093Z,3.47
2023-03-26T05:32:49.756Z,3.47
2023-03-26T05:33:20.972Z,3.47
2023-03-26T05:33:51.416Z,3.47
2023-03-26T05:34:23.596Z,3.47
2023-03-26T05:34:53.549Z,3.47
2023-03-26T05:35:24.582Z,3.47
2023-03-26T05:35:55.934Z,3.47
2023-03-26T05:36:26.839Z,3.47
2023-03-26T05:36:58.071Z,3.47
2023-03-26T05:37:28.509Z,3.47
2023-03-26T05:37:59.431Z,3.47
2023-03-26T05:38:30.584Z,3.47
2023-03-26T05:39:01.966Z,3.47
2023-03-26T05:39:33.522Z,3.47
2023-03-26T05:40:03.236Z,3.47
2023-03-26T05:40:34.493Z,3.47
2023-03-26T05:41:05.445Z,3.47
2023-03-26T05:41:36.409Z,3.47
2023-03-26T05:42:10.904Z,3.47
2023-03-26T05:42:38.763Z,3.47
2023-03-26T05:43:09.787Z,3.47
2023-03-26T05:43:40.971Z,3.47
2023-03-26T05:44:11.301Z,3.47
2023-03-26T05:44:43.568Z,3.47
2023-03-26T05:45:16.606Z,3.47
2023-03-26T05:45:44.863Z,3.47
2023-03-26T05:46:15.677Z,3.58
2023-03-26T05:46:46.756Z,3.58
2023-03-26T05:47:17.848Z,3.63
2023-03-26T05:47:48.766Z,3.63
2023-03-26T05:48:19.476Z,3.63
2023-03-26T05:48:50.462Z,3.63
2023-03-26T05:49:21.426Z,3.63
2023-03-26T05:49:53.797Z,3.63
2023-03-26T05:50:23.948Z,3.63
2023-03-26T05:50:55.128Z,3.63
2023-03-26T05:51:25.789Z,3.63
2023-03-26T05:51:56.769Z,3.63
2023-03-26T05:52:27.541Z,3.63
2023-03-26T05:52:58.463Z,3.63
2023-03-26T05:53:29.322Z,3.63
2023-03-26T05:54:00.909Z,3.63
2023-03-26T05:54:31.933Z,3.63
2023-03-26T05:55:03.718Z,3.63
2023-03-26T05:55:33.759Z,3.63
2023-03-26T05:56:04.488Z,3.63
2023-03-26T05:56:35.471Z,3.63
2023-03-26T05:57:06.606Z,3.63
2023-03-26T05:57:37.957Z,3.63
2023-03-26T05:58:08.953Z,3.63
2023-03-26T05:58:39.400Z,3.63
2023-03-26T05:59:10.814Z,3.63
2023-03-26T05:59:41.338Z,3.63
2023-03-26T06:00:16.322Z,3.74
2023-03-26T06:00:43.771Z,3.74
2023-03-26T06:01:14.583Z,3.74
2023-03-26T06:01:45.727Z,3.74
2023-03-26T06:02:16.474Z,3.74
2023-03-26T06:02:47.734Z,3.74
2023-03-26T06:03:18.773Z,3.74
2023-03-26T06:03:49.724Z,3.74
2023-03-26T06:04:20.584Z,3.74
2023-03-26T06:04:51.430Z,3.74
2023-03-26T06:05:23.370Z,3.74
2023-03-26T06:05:53.440Z,3.74
2023-03-26T06:06:24.286Z,3.74
2023-03-26T06:06:55.571Z,3.74
2023-03-26T06:07:26.409Z,3.86
2023-03-26T06:07:57.606Z,3.86
2023-03-26T06:08:28.446Z,3.86
2023-03-26T06:09:02.642Z,3.86
2023-03-26T06:09:31.089Z,3.86
2023-03-26T06:10:01.519Z,3.86
2023-03-26T06:10:33.195Z,3.86
2023-03-26T06:11:03.278Z,3.86
2023-03-26T06:11:34.473Z,3.86
2023-03-26T06:12:05.832Z,3.86
2023-03-26T06:12:36.554Z,3.97
2023-03-26T06:13:07.282Z,3.97
2023-03-26T06:13:39.697Z,3.97
2023-03-26T06:14:09.564Z,3.97
2023-03-26T06:14:40.871Z,3.97
2023-03-26T06:15:14.254Z,3.97
2023-03-26T06:15:43.658Z,3.97
2023-03-26T06:16:26.698Z,3.97
2023-03-26T06:16:44.608Z,3.97
2023-03-26T06:17:15.583Z,3.97
2023-03-26T06:17:46.585Z,3.97
2023-03-26T06:18:17.299Z,3.97
2023-03-26T06:18:48.586Z,3.97
2023-03-26T06:19:19.449Z,3.97
2023-03-26T06:19:50.390Z,3.97
2023-03-26T06:20:21.220Z,3.97
2023-03-26T06:20:53.818Z,3.97
2023-03-26T06:21:23.715Z,3.97
2023-03-26T06:21:54.596Z,3.97
2023-03-26T06:22:25.878Z,3.97
2023-03-26T06:22:56.801Z,4.08
2023-03-26T06:23:28.014Z,4.08
2023-03-26T06:23:59.048Z,4.08
2023-03-26T06:24:29.663Z,4.08
2023-03-26T06:25:00.832Z,4.08
2023-03-26T06:25:31.561Z,4.08
2023-03-26T06:26:03.479Z,4.08
2023-03-26T06:26:33.813Z,4.08
2023-03-26T06:27:04.748Z,4.08
2023-03-26T06:27:35.552Z,4.08
2023-03-26T06:28:06.796Z,4.08
2023-03-26T06:28:37.844Z,4.08
2023-03-26T06:29:08.910Z,4.08
2023-03-26T06:29:39.793Z,4.08
2023-03-26T06:30:13.567Z,4.08
2023-03-26T06:30:41.580Z,4.08
2023-03-26T06:31:13.627Z,4.13
2023-03-26T06:31:43.763Z,4.13
2023-03-26T06:32:19.655Z,4.13
2023-03-26T06:32:45.440Z,4.13
2023-03-26T06:33:16.524Z,4.13
2023-03-26T06:33:47.398Z,4.13
2023-03-26T06:34:18.523Z,4.13
2023-03-26T06:34:49.129Z,4.13
2023-03-26T06:35:20.621Z,4.24
2023-03-26T06:35:51.495Z,4.24
2023-03-26T06:36:23.764Z,4.24
2023-03-26T06:36:53.776Z,4.24
2023-03-26T06:37:25.081Z,4.36
2023-03-26T06:37:55.934Z,4.36
2023-03-26T06:38:26.958Z,4.36
2023-03-26T06:38:57.496Z,4.36
2023-03-26T06:39:28.880Z,4.24
2023-03-26T06:39:59.606Z,4.36
2023-03-26T06:40:30.800Z,4.36
2023-03-26T06:41:01.465Z,4.36
2023-03-26T06:41:33.605Z,4.36
2023-03-26T06:42:04.382Z,4.36
2023-03-26T06:43:08.668Z,4.36
2023-03-26T06:43:37.662Z,4.36
2023-03-26T06:44:07.691Z,4.36
2023-03-26T06:44:38.813Z,4.36
2023-03-26T06:45:12.416Z,4.36
2023-03-26T06:45:40.610Z,4.36
2023-03-26T06:46:11.823Z,4.36
2023-03-26T06:46:43.349Z,4.36
2023-03-26T06:47:13.610Z,4.36
2023-03-26T06:47:44.864Z,4.36
2023-03-26T06:48:15.701Z,4.47
2023-03-26T06:48:47.090Z,4.47
2023-03-26T06:49:17.790Z,4.47
2023-03-26T06:49:48.412Z,4.47
2023-03-26T06:50:19.731Z,4.32
2023-03-26T06:50:50.709Z,4.32
2023-03-26T06:51:21.787Z,4.32
2023-03-26T06:51:53.479Z,4.32
2023-03-26T06:52:23.875Z,4.32
2023-03-26T06:52:54.676Z,4.32
2023-03-26T06:53:26.251Z,4.32
2023-03-26T06:53:57.004Z,4.32
2023-03-26T06:54:28.130Z,4.32
2023-03-26T06:54:59.184Z,4.32
2023-03-26T06:55:29.708Z,4.32
2023-03-26T06:56:01.034Z,4.32
2023-03-26T06:56:31.981Z,4.32
2023-03-26T06:57:03.615Z,4.32
2023-03-26T06:57:33.895Z,4.32
2023-03-26T06:58:04.904Z,4.32
2023-03-26T06:58:36.304Z,4.32
2023-03-26T06:59:06.874Z,4.32